createdAt,value
2019-02-10T00:00:59.078Z,10.07
2019-02-10T00:03:26.322Z,11.00
2019-02-10T00:05:53.387Z,9.17
2019-02-10T00:08:20.412Z,7.73
2019-02-10T00:10:47.950Z,10.10
2019-02-10T00:13:26.497Z,11.23
2019-02-10T00:15:53.712Z,9.03
2019-02-10T00:18:23.159Z,15.77
2019-02-10T00:20:50.237Z,8.67
2019-02-10T00:23:17.456Z,7.73
2019-02-10T00:25:44.785Z,9.00
2019-02-10T00:28:11.770Z,9.33
2019-02-10T00:30:38.725Z,11.20
2019-02-10T00:33:05.795Z,11.37
2019-02-10T00:35:32.792Z,11.70
2019-02-10T00:37:59.772Z,8.67
2019-02-10T00:40:26.694Z,12.47
2019-02-10T00:42:53.639Z,7.50
2019-02-10T00:45:20.943Z,8.87
2019-02-10T00:47:47.948Z,10.93
2019-02-10T00:50:15.074Z,11.63
2019-02-10T00:52:42.002Z,10.93
2019-02-10T00:55:09.786Z,10.17
2019-02-10T00:57:39.226Z,6.10
2019-02-10T01:00:06.254Z,11.50
2019-02-10T01:02:33.271Z,13.60
2019-02-10T01:05:00.214Z,13.37
2019-02-10T01:07:27.290Z,9.47
2019-02-10T01:09:54.250Z,8.40
2019-02-10T01:12:21.957Z,7.60
2019-02-10T01:14:48.923Z,8.47
2019-02-10T01:17:15.839Z,7.17
2019-02-10T01:19:42.785Z,8.10
2019-02-10T01:22:10.431Z,10.77
2019-02-10T01:24:37.351Z,11.37
2019-02-10T01:27:04.326Z,7.90
2019-02-10T01:29:31.376Z,12.33
2019-02-10T01:31:58.551Z,10.97
2019-02-10T01:34:25.568Z,11.90
2019-02-10T01:36:52.516Z,9.60
2019-02-10T01:39:20.572Z,9.67
2019-02-10T01:41:47.502Z,9.67
2019-02-10T01:44:14.476Z,8.07
2019-02-10T01:46:41.424Z,10.80
2019-02-10T01:49:08.366Z,11.73
2019-02-10T01:51:35.340Z,9.20
2019-02-10T01:54:02.285Z,12.40
2019-02-10T01:56:29.251Z,11.30
2019-02-10T01:58:56.255Z,9.90
2019-02-10T02:01:23.203Z,9.47
2019-02-10T02:03:50.109Z,5.23
2019-02-10T02:06:17.105Z,9.77
2019-02-10T02:08:44.058Z,8.60
2019-02-10T02:11:11.009Z,8.23
2019-02-10T02:13:37.981Z,7.70
2019-02-10T02:16:04.975Z,8.83
2019-02-10T02:18:31.954Z,9.27
2019-02-10T02:20:58.905Z,7.47
2019-02-10T02:23:25.918Z,11.73
2019-02-10T02:25:52.902Z,7.43
2019-02-10T02:28:19.886Z,10.53
2019-02-10T02:30:46.861Z,8.23
2019-02-10T02:33:13.821Z,7.97
2019-02-10T02:35:40.785Z,11.97
2019-02-10T02:38:07.727Z,9.47
2019-02-10T02:40:34.645Z,8.30
2019-02-10T02:43:01.592Z,9.07
2019-02-10T02:45:28.539Z,11.27
2019-02-10T02:47:55.504Z,9.50
2019-02-10T02:50:22.514Z,10.13
2019-02-10T02:52:49.472Z,8.23
2019-02-10T02:55:16.557Z,11.67
2019-02-10T02:57:43.552Z,8.97
2019-02-10T03:00:10.596Z,10.47
2019-02-10T03:02:37.535Z,7.03
2019-02-10T03:08:02.076Z,9.83
2019-02-10T03:10:29.042Z,9.33
2019-02-10T03:12:55.980Z,10.03
2019-02-10T03:15:23.172Z,9.77
2019-02-10T03:17:50.134Z,7.97
2019-02-10T03:20:17.360Z,14.03
2019-02-10T03:22:44.315Z,9.97
2019-02-10T03:25:11.277Z,9.90
2019-02-10T03:27:41.209Z,11.97
2019-02-10T03:30:08.452Z,10.13
2019-02-10T03:32:35.428Z,9.90
2019-02-10T03:35:02.407Z,10.53
2019-02-10T03:37:29.411Z,8.80
2019-02-10T03:39:56.390Z,10.00
2019-02-10T03:42:23.339Z,7.30
2019-02-10T03:44:50.388Z,8.90
2019-02-10T03:47:17.383Z,7.10
2019-02-10T03:49:44.344Z,8.83
2019-02-10T03:52:11.313Z,7.87
2019-02-10T03:54:38.240Z,9.10
2019-02-10T03:57:05.210Z,9.47
2019-02-10T03:59:32.579Z,9.60
2019-02-10T04:01:59.538Z,10.57
2019-02-10T04:04:26.477Z,13.33
2019-02-10T04:06:53.477Z,10.67
2019-02-10T04:09:20.510Z,9.90
2019-02-10T04:11:47.430Z,9.67
2019-02-10T04:14:14.385Z,14.43
2019-02-10T04:16:41.384Z,11.87
2019-02-10T04:19:08.324Z,10.30
2019-02-10T04:21:35.854Z,8.57
2019-02-10T04:24:02.841Z,8.47
2019-02-10T04:26:29.852Z,6.90
2019-02-10T04:28:56.791Z,10.83
2019-02-10T04:31:23.757Z,10.47
2019-02-10T04:33:50.707Z,8.70
2019-02-10T04:36:17.619Z,8.40
2019-02-10T04:38:44.644Z,9.87
2019-02-10T04:41:11.553Z,17.10
2019-02-10T04:43:38.571Z,7.53
2019-02-10T04:46:05.608Z,11.57
2019-02-10T04:48:32.589Z,14.10
2019-02-10T04:50:59.552Z,6.57
2019-02-10T04:53:26.542Z,8.57
2019-02-10T04:56:05.340Z,8.13
2019-02-10T04:58:32.342Z,8.30
2019-02-10T05:01:01.644Z,9.17
2019-02-10T05:03:28.622Z,10.17
2019-02-10T05:05:55.645Z,11.60
2019-02-10T05:08:22.640Z,9.67
2019-02-10T05:10:49.611Z,9.50
2019-02-10T05:13:16.557Z,10.30
2019-02-10T05:15:43.487Z,10.10
2019-02-10T05:18:10.726Z,11.17
2019-02-10T05:20:37.641Z,9.53
2019-02-10T05:23:04.586Z,18.50
2019-02-10T05:25:31.525Z,34.90
2019-02-10T05:27:58.460Z,28.37
2019-02-10T05:30:25.555Z,50.67
2019-02-10T05:32:52.758Z,65.73
2019-02-10T05:35:20.303Z,75.87
2019-02-10T05:37:47.513Z,65.33
2019-02-10T05:40:14.748Z,40.43
2019-02-10T05:42:41.958Z,29.27
2019-02-10T05:45:09.306Z,24.10
2019-02-10T05:47:36.616Z,20.43
2019-02-10T05:50:06.900Z,19.57
2019-02-10T05:52:34.107Z,15.50
2019-02-10T05:55:01.461Z,14.60
2019-02-10T05:57:28.855Z,13.63
2019-02-10T05:59:56.159Z,22.43
2019-02-10T06:02:27.038Z,18.27
2019-02-10T06:04:54.929Z,15.10
2019-02-10T06:07:23.199Z,15.10
2019-02-10T06:09:50.439Z,14.23
2019-02-10T06:12:17.822Z,12.50
2019-02-10T06:14:45.108Z,10.97
2019-02-10T06:17:12.298Z,11.57
2019-02-10T06:19:39.531Z,15.57
2019-02-10T06:22:06.770Z,17.63
2019-02-10T06:24:33.939Z,23.40
2019-02-10T06:27:01.384Z,30.33
2019-02-10T06:29:28.635Z,23.40
2019-02-10T06:31:55.925Z,14.63
2019-02-10T06:34:23.239Z,16.23
2019-02-10T06:36:50.421Z,18.23
2019-02-10T06:39:17.635Z,14.90
2019-02-10T06:41:44.907Z,22.33
2019-02-10T06:44:12.052Z,20.77
2019-02-10T06:46:39.253Z,22.53
2019-02-10T06:49:07.020Z,17.10
2019-02-10T06:51:34.207Z,18.97
2019-02-10T06:54:01.464Z,18.63
2019-02-10T06:56:28.712Z,16.60
2019-02-10T06:58:56.608Z,19.60
2019-02-10T07:01:28.448Z,15.77
2019-02-10T07:04:05.574Z,12.20
2019-02-10T07:06:33.496Z,13.40
2019-02-10T07:13:26.934Z,12.03
2019-02-10T07:16:06.325Z,14.03
2019-02-10T07:18:45.501Z,12.10
2019-02-10T07:21:12.685Z,14.37
2019-02-10T07:24:02.935Z,12.23
2019-02-10T07:27:10.791Z,12.20
2019-02-10T07:30:45.621Z,10.00
2019-02-10T07:33:39.578Z,10.87
2019-02-10T07:36:22.324Z,10.60
2019-02-10T07:39:03.690Z,13.33
2019-02-10T07:41:42.221Z,12.50
2019-02-10T07:44:20.288Z,9.30
2019-02-10T07:47:01.193Z,11.40
2019-02-10T07:49:47.363Z,11.73
2019-02-10T07:52:33.837Z,10.97
2019-02-10T07:55:12.482Z,15.17
2019-02-10T07:57:52.973Z,16.63
2019-02-10T08:00:42.279Z,14.77
2019-02-10T08:03:19.828Z,13.90
2019-02-10T08:05:56.776Z,18.13
2019-02-10T08:09:38.403Z,14.37
2019-02-10T08:12:28.153Z,17.63
2019-02-10T08:15:06.167Z,15.13
2019-02-10T08:18:19.759Z,17.13
2019-02-10T08:20:56.350Z,16.00
2019-02-10T08:23:42.571Z,16.83
2019-02-10T08:27:21.810Z,25.17
2019-02-10T08:32:06.236Z,9.07
2019-02-10T08:34:42.092Z,15.20
2019-02-10T08:37:18.660Z,21.23
2019-02-10T08:40:02.440Z,26.20
2019-02-10T08:42:40.581Z,22.60
2019-02-10T08:45:20.599Z,12.43
2019-02-10T08:48:01.090Z,24.83
2019-02-10T08:50:39.532Z,26.13
2019-02-10T08:53:14.196Z,32.40
2019-02-10T08:55:41.699Z,35.67
2019-02-10T08:58:09.041Z,31.30
2019-02-10T09:00:36.697Z,38.67
2019-02-10T09:03:04.337Z,35.60
2019-02-10T09:05:33.694Z,26.50
2019-02-10T09:08:11.422Z,23.93
2019-02-10T09:10:38.891Z,29.93
2019-02-10T09:13:06.869Z,30.63
2019-02-10T09:15:35.261Z,31.53
2019-02-10T09:18:03.588Z,21.40
2019-02-10T09:20:35.408Z,21.63
2019-02-10T09:23:03.726Z,15.17
2019-02-10T09:25:31.688Z,22.17
2019-02-10T09:27:59.270Z,21.80
2019-02-10T09:30:26.626Z,19.70
2019-02-10T09:32:54.832Z,12.30
2019-02-10T09:35:22.172Z,25.47
2019-02-10T09:37:49.907Z,21.63
2019-02-10T09:40:17.334Z,16.07
2019-02-10T09:42:44.903Z,24.17
2019-02-10T09:45:15.797Z,15.03
2019-02-10T09:47:45.057Z,23.83
2019-02-10T09:50:15.345Z,22.87
2019-02-10T09:52:42.856Z,23.67
2019-02-10T09:55:10.408Z,20.83
2019-02-10T09:57:38.712Z,20.67
2019-02-10T10:00:08.253Z,19.77
2019-02-10T10:02:41.450Z,25.57
2019-02-10T10:05:09.734Z,23.90
2019-02-10T10:07:37.290Z,15.23
2019-02-10T10:10:05.476Z,18.73
2019-02-10T10:12:33.642Z,21.80
2019-02-10T10:15:01.122Z,22.83
2019-02-10T10:17:33.528Z,33.90
2019-02-10T10:20:04.084Z,31.50
2019-02-10T10:22:34.791Z,50.77
2019-02-10T10:25:03.733Z,21.47
2019-02-10T10:27:31.239Z,25.57
2019-02-10T10:30:02.239Z,12.53
2019-02-10T10:32:32.403Z,22.73
2019-02-10T10:35:00.683Z,23.90
2019-02-10T10:37:28.177Z,28.93
2019-02-10T10:39:55.839Z,16.17
2019-02-10T10:42:23.525Z,21.77
2019-02-10T10:44:51.373Z,21.10
2019-02-10T10:47:52.958Z,16.17
2019-02-10T10:50:20.460Z,17.77
2019-02-10T10:52:48.985Z,22.50
2019-02-10T10:55:17.918Z,18.60
2019-02-10T10:57:45.393Z,18.87
2019-02-10T11:00:12.968Z,15.80
2019-02-10T11:02:41.304Z,22.70
2019-02-10T11:05:08.717Z,23.90
2019-02-10T11:07:37.013Z,22.47
2019-02-10T11:10:06.956Z,20.90
2019-02-10T11:12:38.723Z,13.90
2019-02-10T11:15:07.734Z,23.33
2019-02-10T11:17:35.085Z,20.90
2019-02-10T11:20:04.371Z,17.67
2019-02-10T11:22:32.899Z,17.97
2019-02-10T11:25:11.314Z,12.10
2019-02-10T11:27:39.041Z,17.80
2019-02-10T11:30:07.431Z,19.50
2019-02-10T11:32:35.301Z,18.23
2019-02-10T11:35:03.401Z,13.27
2019-02-10T11:37:31.807Z,17.83
2019-02-10T11:39:59.149Z,12.37
2019-02-10T11:42:26.390Z,11.83
2019-02-10T11:44:53.790Z,12.97
2019-02-10T11:47:21.877Z,16.17
2019-02-10T11:49:49.070Z,18.37
2019-02-10T11:52:16.485Z,18.40
2019-02-10T11:54:43.670Z,19.40
2019-02-10T11:57:11.877Z,15.40
2019-02-10T11:59:39.143Z,12.10
2019-02-10T12:02:06.406Z,13.17
2019-02-10T12:07:23.925Z,20.67
2019-02-10T12:09:51.888Z,10.47
2019-02-10T12:12:18.555Z,11.60
2019-02-10T12:14:45.959Z,12.30
2019-02-10T12:17:13.296Z,15.37
2019-02-10T12:19:40.554Z,17.37
2019-02-10T12:22:08.124Z,15.00
2019-02-10T12:24:35.652Z,15.40
2019-02-10T12:27:02.965Z,14.27
2019-02-10T12:29:30.600Z,15.37
2019-02-10T12:31:58.846Z,17.93
2019-02-10T12:34:27.165Z,20.07
2019-02-10T12:36:54.493Z,21.00
2019-02-10T12:39:21.962Z,18.60
2019-02-10T12:41:50.500Z,18.37
2019-02-10T12:44:18.692Z,18.33
2019-02-10T12:46:46.311Z,19.00
2019-02-10T12:49:26.403Z,16.77
2019-02-10T12:51:53.731Z,23.83
2019-02-10T12:54:21.229Z,16.20
2019-02-10T12:56:48.677Z,19.77
2019-02-10T12:59:16.201Z,12.73
2019-02-10T13:01:43.687Z,16.93
2019-02-10T13:04:11.221Z,16.30
2019-02-10T13:06:39.145Z,13.93
2019-02-10T13:09:08.936Z,9.63
2019-02-10T13:11:35.952Z,6.67
2019-02-10T13:14:03.552Z,8.73
2019-02-10T13:16:30.839Z,7.40
2019-02-10T13:18:58.152Z,6.20
2019-02-10T13:21:26.410Z,11.20
2019-02-10T13:23:53.785Z,7.63
2019-02-10T13:26:20.808Z,7.10
2019-02-10T13:28:48.159Z,11.37
2019-02-10T13:31:16.251Z,7.27
2019-02-10T13:33:43.390Z,6.57
2019-02-10T13:36:10.725Z,7.27
2019-02-10T13:38:37.931Z,6.13
2019-02-10T13:41:04.935Z,5.90
2019-02-10T13:43:33.617Z,10.03
2019-02-10T13:45:59.130Z,5.97
2019-02-10T13:48:26.185Z,8.17
2019-02-10T13:50:53.200Z,7.80
2019-02-10T13:53:20.303Z,8.70
2019-02-10T13:55:48.304Z,10.07
2019-02-10T13:58:15.377Z,7.73
2019-02-10T14:00:42.972Z,6.83
2019-02-10T14:03:10.803Z,8.73
2019-02-10T14:05:37.860Z,8.87
2019-02-10T14:08:05.144Z,9.73
2019-02-10T14:10:32.502Z,14.67
2019-02-10T14:15:33.735Z,20.33
2019-02-10T14:18:01.877Z,17.33
2019-02-10T14:20:29.947Z,15.13
2019-02-10T14:22:57.374Z,12.90
2019-02-10T14:25:24.643Z,13.67
2019-02-10T14:27:51.974Z,17.33
2019-02-10T14:30:20.324Z,16.07
2019-02-10T14:32:47.987Z,13.53
2019-02-10T14:35:15.723Z,27.20
2019-02-10T14:37:43.287Z,24.87
2019-02-10T14:40:11.236Z,20.67
2019-02-10T14:42:38.727Z,24.13
2019-02-10T14:45:06.513Z,23.47
2019-02-10T14:47:33.858Z,20.67
2019-02-10T14:50:01.358Z,12.90
2019-02-10T14:52:28.633Z,17.53
2019-02-10T14:54:55.915Z,14.87
2019-02-10T14:57:23.242Z,11.53
2019-02-10T14:59:50.499Z,14.63
2019-02-10T15:02:17.723Z,25.97
2019-02-10T15:04:46.349Z,18.53
2019-02-10T15:07:17.573Z,21.40
2019-02-10T15:09:44.406Z,15.20
2019-02-10T15:12:11.664Z,16.60
2019-02-10T15:14:38.855Z,18.50
2019-02-10T15:17:06.227Z,22.70
2019-02-10T15:19:33.431Z,21.80
2019-02-10T15:22:00.571Z,5.70
2019-02-10T15:24:29.417Z,6.33
2019-02-10T15:26:56.957Z,22.13
2019-02-10T15:29:24.554Z,22.73
2019-02-10T15:31:52.583Z,15.60
2019-02-10T15:34:20.103Z,14.57
2019-02-10T15:36:47.170Z,17.03
2019-02-10T15:39:14.601Z,15.70
2019-02-10T15:41:42.053Z,14.80
2019-02-10T15:44:09.748Z,17.50
2019-02-10T15:46:37.730Z,17.23
2019-02-10T15:49:12.146Z,15.97
2019-02-10T15:51:39.894Z,21.43
2019-02-10T15:54:07.736Z,33.50
2019-02-10T15:56:51.182Z,81.57
2019-02-10T15:59:18.871Z,18.03
2019-02-10T16:01:46.415Z,17.77
2019-02-10T16:04:14.380Z,11.63
2019-02-10T16:06:41.965Z,10.47
2019-02-10T16:09:09.752Z,19.40
2019-02-10T16:11:37.873Z,13.53
2019-02-10T16:14:05.377Z,11.00
2019-02-10T16:16:32.853Z,13.80
2019-02-10T16:19:00.525Z,15.37
2019-02-10T16:21:35.400Z,18.60
2019-02-10T16:24:06.926Z,14.13
2019-02-10T16:26:34.521Z,27.37
2019-02-10T16:29:02.946Z,19.77
2019-02-10T16:31:32.073Z,10.03
2019-02-10T16:33:59.457Z,13.27
2019-02-10T16:36:27.368Z,19.27
2019-02-10T16:38:55.196Z,18.17
2019-02-10T16:41:22.881Z,11.27
2019-02-10T16:43:50.493Z,10.90
2019-02-10T16:46:17.957Z,12.53
2019-02-10T16:51:50.346Z,11.30
2019-02-10T16:57:11.162Z,7.30
2019-02-10T17:02:32.358Z,14.40
2019-02-10T17:04:59.793Z,21.93
2019-02-10T17:07:29.035Z,21.43
2019-02-10T17:09:56.970Z,19.13
2019-02-10T17:12:27.444Z,22.70
2019-02-10T17:14:55.130Z,11.27
2019-02-10T17:17:24.674Z,20.23
2019-02-10T17:19:52.538Z,13.07
2019-02-10T17:22:20.184Z,14.50
2019-02-10T17:24:47.828Z,31.37
2019-02-10T17:27:15.527Z,16.87
2019-02-10T17:29:43.058Z,10.53
2019-02-10T17:32:11.446Z,23.97
2019-02-10T17:34:39.109Z,24.13
2019-02-10T17:37:13.920Z,14.80
2019-02-10T17:39:41.453Z,37.10
2019-02-10T17:42:09.057Z,20.83
2019-02-10T17:44:36.707Z,27.47
2019-02-10T17:47:04.209Z,32.43
2019-02-10T17:49:31.967Z,25.93
2019-02-10T17:51:59.513Z,20.27
2019-02-10T17:54:27.704Z,15.97
2019-02-10T17:56:55.195Z,17.50
2019-02-10T17:59:22.894Z,13.77
2019-02-10T18:01:50.556Z,11.27
2019-02-10T18:04:18.998Z,18.97
2019-02-10T18:06:46.504Z,20.40
2019-02-10T18:09:13.952Z,18.10
2019-02-10T18:11:41.655Z,13.13
2019-02-10T18:14:16.893Z,17.30
2019-02-10T18:16:50.212Z,36.10
2019-02-10T18:21:28.419Z,32.23
2019-02-10T18:24:01.434Z,12.10
2019-02-10T18:27:10.586Z,12.77
2019-02-10T18:29:43.635Z,24.93
2019-02-10T18:32:19.773Z,11.90
2019-02-10T18:35:27.224Z,11.47
2019-02-10T18:38:11.175Z,12.30
2019-02-10T18:40:45.416Z,11.93
2019-02-10T18:44:20.418Z,6.93
2019-02-10T18:47:24.593Z,10.83
2019-02-10T18:50:08.357Z,12.50
2019-02-10T18:52:43.286Z,10.73
2019-02-10T18:55:16.516Z,11.33
2019-02-10T18:57:50.328Z,10.70
2019-02-10T19:00:23.759Z,13.93
2019-02-10T19:03:02.022Z,13.70
2019-02-10T19:05:41.357Z,10.87
2019-02-10T19:08:21.366Z,9.37
2019-02-10T19:10:55.073Z,11.50
2019-02-10T19:13:27.047Z,12.07
2019-02-10T19:16:00.994Z,11.43
2019-02-10T19:20:41.211Z,11.33
2019-02-10T19:23:14.468Z,18.23
2019-02-10T19:25:50.539Z,25.43
2019-02-10T19:28:22.702Z,19.10
2019-02-10T19:30:55.271Z,18.27
2019-02-10T19:33:32.848Z,16.67
2019-02-10T19:36:04.990Z,16.47
2019-02-10T19:38:38.790Z,18.77
2019-02-10T19:41:16.219Z,12.47
2019-02-10T19:43:56.359Z,13.57
2019-02-10T19:46:29.545Z,10.43
2019-02-10T19:49:05.918Z,14.27
2019-02-10T19:51:38.902Z,14.77
2019-02-10T19:54:12.722Z,7.00
2019-02-10T19:56:49.793Z,10.77
2019-02-10T19:59:40.987Z,8.53
2019-02-10T20:04:21.209Z,14.67
2019-02-10T20:06:53.334Z,12.43
2019-02-10T20:09:26.333Z,10.73
2019-02-10T20:12:04.533Z,11.70
2019-02-10T20:14:40.020Z,13.90
2019-02-10T20:17:15.520Z,14.43
2019-02-10T20:19:52.512Z,8.53
2019-02-10T20:22:25.919Z,14.60
2019-02-10T20:25:03.913Z,9.53
2019-02-10T20:27:37.876Z,20.23
2019-02-10T20:30:12.021Z,10.07
2019-02-10T20:32:49.003Z,12.87
2019-02-10T20:35:22.555Z,10.47
2019-02-10T20:37:56.659Z,15.47
2019-02-10T20:40:33.509Z,12.87
2019-02-10T20:43:10.443Z,8.40
2019-02-10T20:45:46.351Z,14.43
2019-02-10T20:48:26.956Z,12.00
2019-02-10T20:52:00.788Z,12.67
2019-02-10T20:54:35.607Z,18.53
2019-02-10T20:58:06.654Z,12.67
2019-02-10T21:00:39.597Z,12.83
2019-02-10T21:03:27.736Z,13.47
2019-02-10T21:06:05.995Z,17.10
2019-02-10T21:08:42.145Z,9.37
2019-02-10T21:11:17.045Z,9.53
2019-02-10T21:13:49.831Z,11.73
2019-02-10T21:16:26.789Z,12.60
2019-02-10T21:19:30.969Z,15.73
2019-02-10T21:22:02.969Z,14.27
2019-02-10T21:24:39.971Z,18.13
2019-02-10T21:27:17.070Z,16.60
2019-02-10T21:29:58.179Z,19.87
2019-02-10T21:32:37.174Z,22.30
2019-02-10T21:35:14.059Z,8.83
2019-02-10T21:37:50.157Z,7.10
2019-02-10T21:40:28.622Z,16.57
2019-02-10T21:43:03.611Z,9.97
2019-02-10T21:45:41.402Z,12.50
2019-02-10T21:48:16.100Z,13.30
2019-02-10T21:50:43.166Z,8.40
2019-02-10T21:53:10.219Z,2.13
2019-02-10T21:55:38.610Z,8.00
2019-02-10T21:58:05.818Z,17.10
2019-02-10T22:00:32.878Z,4.87
2019-02-10T22:02:59.907Z,4.73
2019-02-10T22:05:27.189Z,4.83
2019-02-10T22:07:55.078Z,5.03
2019-02-10T22:10:22.202Z,6.27
2019-02-10T22:12:50.528Z,4.27
2019-02-10T22:15:17.860Z,5.20
2019-02-10T22:17:44.995Z,4.30
2019-02-10T22:20:12.285Z,1.50
2019-02-10T22:22:39.379Z,5.70
2019-02-10T22:25:07.792Z,3.37
2019-02-10T22:27:34.883Z,2.63
2019-02-10T22:30:03.497Z,4.47
2019-02-10T22:32:30.712Z,4.17
2019-02-10T22:34:57.768Z,4.77
2019-02-10T22:37:24.860Z,5.83
2019-02-10T22:39:52.454Z,5.60
2019-02-10T22:42:19.568Z,5.37
2019-02-10T22:44:46.614Z,3.43
2019-02-10T22:47:13.606Z,1.67
2019-02-10T22:49:41.618Z,7.20
2019-02-10T22:52:08.632Z,7.03
2019-02-10T22:54:35.632Z,4.60
2019-02-10T22:57:02.611Z,4.77
2019-02-10T22:59:29.769Z,5.47
2019-02-10T23:01:56.722Z,3.57
2019-02-10T23:04:23.734Z,2.57
2019-02-10T23:06:50.873Z,2.50
2019-02-10T23:09:21.960Z,1.63
2019-02-10T23:11:48.990Z,2.83
2019-02-10T23:14:15.938Z,2.17
2019-02-10T23:16:42.871Z,4.57
2019-02-10T23:19:09.949Z,2.33
2019-02-10T23:21:36.942Z,4.33
2019-02-10T23:24:03.949Z,2.33
2019-02-10T23:26:31.042Z,2.43
2019-02-10T23:28:58.055Z,1.70
2019-02-10T23:31:25.694Z,3.40
2019-02-10T23:33:52.907Z,2.23
2019-02-10T23:36:19.878Z,4.17
2019-02-10T23:38:46.872Z,2.07
2019-02-10T23:41:13.856Z,3.00
2019-02-10T23:43:41.022Z,4.77
2019-02-10T23:46:07.967Z,3.93
2019-02-10T23:48:34.944Z,3.23
2019-02-10T23:51:01.960Z,1.93
2019-02-10T23:53:28.973Z,1.63
2019-02-10T23:55:55.993Z,1.97
2019-02-10T23:58:23.005Z,1.03
